Time;durP1;ratioP1;P1;durP2;ratioP2;P2;SDS_P1;SDS_P2;PMS_P1;PMS_P2;Temp;Humidity;BMP_temperature;BMP_pressure;BME280_temperature;BME280_humidity;BME280_pressure;Samples;Min_cycle;Max_cycle;Signal;HPM_P1;HPM_P2
2022/12/13 00:01:10;;;;;;;29.35;14.20;;;;;;;;;;6242235;28;20318;-73
2022/12/13 00:04:13;;;;;;;29.42;13.48;;;;;;;;;;6246334;28;20091;-74
2022/12/13 00:07:15;;;;;;;28.80;15.18;;;;;;;;;;6244127;28;20665;-74
2022/12/13 00:10:17;;;;;;;29.65;13.85;;;;;;;;;;6246091;28;20057;-74
2022/12/13 00:13:18;;;;;;;32.28;14.63;;;;;;;;;;6247623;28;20280;-74
2022/12/13 00:16:22;;;;;;;35.55;14.60;;;;;;;;;;6245167;28;20045;-74
2022/12/13 00:19:25;;;;;;;34.42;14.77;;;;;;;;;;6244679;28;20049;-74
2022/12/13 00:22:27;;;;;;;34.35;14.98;;;;;;;;;;6247814;28;20108;-74
2022/12/13 00:25:29;;;;;;;32.53;13.98;;;;;;;;;;6247144;28;20068;-74
2022/12/13 00:28:30;;;;;;;34.60;15.02;;;;;;;;;;6246902;28;20053;-74
2022/12/13 00:31:32;;;;;;;34.17;16.00;;;;;;;;;;6246046;28;20076;-74
2022/12/13 00:34:35;;;;;;;32.88;15.68;;;;;;;;;;6245667;28;20072;-74
2022/12/13 00:37:37;;;;;;;35.42;15.40;;;;;;;;;;6244935;28;20041;-75
2022/12/13 00:40:39;;;;;;;29.42;13.88;;;;;;;;;;6243974;28;20058;-74
2022/12/13 00:43:41;;;;;;;30.90;15.15;;;;;;;;;;6245277;28;20045;-74
2022/12/13 00:46:42;;;;;;;32.03;14.45;;;;;;;;;;6246427;28;20053;-74
2022/12/13 00:49:46;;;;;;;29.23;14.43;;;;;;;;;;6246053;28;20360;-74
2022/12/13 00:52:47;;;;;;;32.97;15.82;;;;;;;;;;6243337;28;20065;-74
2022/12/13 00:55:49;;;;;;;32.00;14.43;;;;;;;;;;6245552;28;20169;-74
2022/12/13 00:58:51;;;;;;;33.10;15.68;;;;;;;;;;6246751;28;20052;-74
2022/12/13 01:01:53;;;;;;;31.83;14.82;;;;;;;;;;6245533;28;20049;-74
2022/12/13 01:04:56;;;;;;;32.35;15.18;;;;;;;;;;6243326;28;20077;-74
2022/12/13 01:07:58;;;;;;;35.97;15.33;;;;;;;;;;6246582;28;20423;-74
2022/12/13 01:11:00;;;;;;;31.73;14.20;;;;;;;;;;6246412;28;20079;-74
2022/12/13 01:14:02;;;;;;;34.00;14.85;;;;;;;;;;6246397;28;20087;-74
2022/12/13 01:17:03;;;;;;;33.30;15.38;;;;;;;;;;6247282;28;20113;-74
2022/12/13 01:20:09;;;;;;;30.20;15.00;;;;;;;;;;6246792;28;20095;-74
2022/12/13 01:23:10;;;;;;;31.40;14.52;;;;;;;;;;6245746;28;20053;-74
2022/12/13 01:26:14;;;;;;;33.85;15.02;;;;;;;;;;6241308;28;20049;-74
2022/12/13 01:29:16;;;;;;;29.67;15.10;;;;;;;;;;6243564;28;20109;-74
2022/12/13 01:32:17;;;;;;;35.58;15.93;;;;;;;;;;6246408;28;20045;-73
2022/12/13 01:35:21;;;;;;;33.40;14.05;;;;;;;;;;6246087;28;20111;-74
2022/12/13 01:38:22;;;;;;;30.35;13.70;;;;;;;;;;6242251;28;21702;-74
2022/12/13 01:41:24;;;;;;;32.03;15.77;;;;;;;;;;6244768;28;20222;-74
2022/12/13 01:45:02;;;;;;;30.50;15.50;;;;;;;;;;6247204;28;20107;-74
2022/12/13 01:48:06;;;;;;;27.80;14.10;;;;;;;;;;6245353;28;20083;-74
2022/12/13 01:51:11;;;;;;;30.40;13.80;;;;;;;;;;6239093;28;20067;-74
2022/12/13 01:54:17;;;;;;;31.75;14.68;;;;;;;;;;6239841;28;20068;-74
2022/12/13 01:57:20;;;;;;;29.85;14.88;;;;;;;;;;6245245;28;20064;-73
2022/12/13 02:00:22;;;;;;;30.92;14.88;;;;;;;;;;6245218;28;20068;-74
2022/12/13 02:03:24;;;;;;;32.75;15.30;;;;;;;;;;6248687;28;20049;-74
2022/12/13 02:06:32;;;;;;;27.83;14.20;;;;;;;;;;6242106;28;20290;-74
2022/12/13 02:09:34;;;;;;;28.80;14.48;;;;;;;;;;6241014;28;20053;-74
2022/12/13 02:12:37;;;;;;;26.35;13.75;;;;;;;;;;6243641;28;20057;-74
2022/12/13 02:15:47;;;;;;;31.77;14.88;;;;;;;;;;6246293;28;20349;-74
2022/12/13 02:18:58;;;;;;;30.05;14.65;;;;;;;;;;6243096;28;20045;-74
2022/12/13 02:22:06;;;;;;;30.25;13.30;;;;;;;;;;6242892;28;20369;-74
2022/12/13 02:25:30;;;;;;;24.63;13.27;;;;;;;;;;6244586;28;20054;-74
2022/12/13 02:28:43;;;;;;;26.08;13.48;;;;;;;;;;6244801;28;20249;-74
2022/12/13 02:31:51;;;;;;;26.77;12.30;;;;;;;;;;6245777;28;20296;-74
2022/12/13 02:34:57;;;;;;;32.90;14.65;;;;;;;;;;6249021;28;20061;-74
2022/12/13 02:38:02;;;;;;;29.05;13.65;;;;;;;;;;6250090;28;20105;-74
2022/12/13 02:41:08;;;;;;;26.05;13.88;;;;;;;;;;6247851;28;20096;-74
2022/12/13 02:44:15;;;;;;;27.85;14.43;;;;;;;;;;6247603;28;20156;-74
2022/12/13 02:47:20;;;;;;;23.88;12.98;;;;;;;;;;6243304;28;20125;-74
2022/12/13 02:50:23;;;;;;;26.30;13.98;;;;;;;;;;6246922;28;20053;-74
2022/12/13 02:53:25;;;;;;;25.85;12.77;;;;;;;;;;6246761;28;20050;-74
2022/12/13 02:56:27;;;;;;;28.23;13.98;;;;;;;;;;6248579;28;20207;-74
2022/12/13 02:59:31;;;;;;;29.13;13.85;;;;;;;;;;6247473;28;20045;-74
2022/12/13 03:02:43;;;;;;;28.02;13.50;;;;;;;;;;6245909;28;20060;-74
2022/12/13 03:09:19;;;;;;;33.28;15.20;;;;;;;;;;6248155;28;20377;-74
2022/12/13 03:15:51;;;;;;;29.05;14.88;;;;;;;;;;6246969;28;20324;-74
2022/12/13 03:18:58;;;;;;;26.77;14.60;;;;;;;;;;6247169;28;20341;-74
2022/12/13 03:22:00;;;;;;;26.30;13.90;;;;;;;;;;6249017;28;20041;-74
2022/12/13 03:25:01;;;;;;;28.80;15.15;;;;;;;;;;6248174;28;20360;-74
2022/12/13 03:28:03;;;;;;;27.00;14.10;;;;;;;;;;6246957;28;20053;-74
2022/12/13 03:31:05;;;;;;;28.65;14.30;;;;;;;;;;6245536;28;20054;-74
2022/12/13 03:34:08;;;;;;;26.10;14.65;;;;;;;;;;6246969;28;20059;-74
2022/12/13 03:37:10;;;;;;;31.17;15.05;;;;;;;;;;6245807;28;20045;-74
2022/12/13 03:40:12;;;;;;;24.65;14.63;;;;;;;;;;6245436;28;20042;-74
2022/12/13 03:43:14;;;;;;;26.83;14.25;;;;;;;;;;6247197;28;20049;-74
2022/12/13 03:46:16;;;;;;;26.95;14.63;;;;;;;;;;6246089;28;20361;-74
2022/12/13 03:49:19;;;;;;;24.88;14.63;;;;;;;;;;6244211;28;20375;-74
2022/12/13 03:52:20;;;;;;;27.83;14.52;;;;;;;;;;6247167;28;20053;-74
2022/12/13 03:55:22;;;;;;;29.80;14.88;;;;;;;;;;6248781;28;20106;-74
2022/12/13 03:58:24;;;;;;;23.58;13.50;;;;;;;;;;6246261;28;20046;-74
2022/12/13 04:01:25;;;;;;;28.85;14.80;;;;;;;;;;6248790;28;20072;-74
2022/12/13 04:04:29;;;;;;;24.63;13.65;;;;;;;;;;6247870;28;20057;-74
2022/12/13 04:07:30;;;;;;;26.65;13.52;;;;;;;;;;6247976;28;20069;-74
2022/12/13 04:10:34;;;;;;;26.50;14.20;;;;;;;;;;6244870;28;20468;-74
2022/12/13 04:13:34;;;;;;;26.03;13.80;;;;;;;;;;6244279;28;20053;-73
2022/12/13 04:16:36;;;;;;;29.92;14.50;;;;;;;;;;6243288;28;20060;-74
2022/12/13 04:19:39;;;;;;;28.05;14.55;;;;;;;;;;6245659;28;20120;-74
2022/12/13 04:22:41;;;;;;;27.25;14.23;;;;;;;;;;6242740;28;20045;-74
2022/12/13 04:25:43;;;;;;;27.13;14.90;;;;;;;;;;6248096;28;20072;-74
2022/12/13 04:28:45;;;;;;;24.70;13.60;;;;;;;;;;6244447;28;20081;-74
2022/12/13 04:31:47;;;;;;;27.80;14.00;;;;;;;;;;6246435;28;20054;-74
2022/12/13 04:34:50;;;;;;;27.45;14.77;;;;;;;;;;6249107;28;20064;-74
2022/12/13 04:37:51;;;;;;;24.25;13.60;;;;;;;;;;6241908;28;20054;-74
2022/12/13 04:40:53;;;;;;;30.20;14.73;;;;;;;;;;6247608;28;20103;-74
2022/12/13 04:43:55;;;;;;;29.95;14.27;;;;;;;;;;6247440;28;20054;-74
2022/12/13 04:46:57;;;;;;;28.88;15.63;;;;;;;;;;6240979;28;20116;-74
2022/12/13 04:50:00;;;;;;;28.77;14.90;;;;;;;;;;6246741;28;20045;-74
2022/12/13 04:53:01;;;;;;;27.00;13.88;;;;;;;;;;6243846;28;20054;-74
2022/12/13 04:56:04;;;;;;;24.25;13.77;;;;;;;;;;6243847;28;20053;-74
2022/12/13 04:59:06;;;;;;;24.17;14.13;;;;;;;;;;6247563;28;20087;-74
2022/12/13 05:02:08;;;;;;;27.13;14.18;;;;;;;;;;6246589;28;20225;-74
2022/12/13 05:05:12;;;;;;;28.42;15.05;;;;;;;;;;6243765;28;20116;-74
2022/12/13 05:08:13;;;;;;;26.10;13.68;;;;;;;;;;6248113;28;20041;-74
2022/12/13 05:11:15;;;;;;;29.23;15.00;;;;;;;;;;6243724;28;20057;-73
2022/12/13 05:14:17;;;;;;;27.05;14.80;;;;;;;;;;6246957;28;20123;-74
2022/12/13 05:17:19;;;;;;;25.17;14.15;;;;;;;;;;6241689;28;20092;-74
2022/12/13 05:20:22;;;;;;;28.85;15.35;;;;;;;;;;6245077;28;20325;-74
2022/12/13 05:23:24;;;;;;;28.23;15.27;;;;;;;;;;6245151;28;20053;-74
2022/12/13 05:26:27;;;;;;;27.20;13.45;;;;;;;;;;6245046;28;20062;-74
2022/12/13 05:29:28;;;;;;;28.77;13.85;;;;;;;;;;6246089;28;20048;-74
2022/12/13 05:32:32;;;;;;;28.92;15.50;;;;;;;;;;6244812;28;20261;-74
2022/12/13 05:35:35;;;;;;;27.13;14.48;;;;;;;;;;6247240;28;20053;-74
2022/12/13 05:38:37;;;;;;;28.05;14.18;;;;;;;;;;6244462;28;20135;-74
2022/12/13 05:41:39;;;;;;;27.75;15.55;;;;;;;;;;6243022;28;20096;-74
2022/12/13 05:44:41;;;;;;;32.30;13.27;;;;;;;;;;6243979;28;20057;-74
2022/12/13 05:47:42;;;;;;;28.52;13.98;;;;;;;;;;6245977;28;20343;-74
2022/12/13 05:50:45;;;;;;;25.27;13.82;;;;;;;;;;6245329;28;20049;-74
2022/12/13 05:53:47;;;;;;;28.80;15.18;;;;;;;;;;6244270;28;20084;-74
2022/12/13 05:56:49;;;;;;;25.77;14.20;;;;;;;;;;6240819;28;20049;-73
2022/12/13 05:59:51;;;;;;;26.55;14.95;;;;;;;;;;6247256;28;20041;-73
2022/12/13 06:02:52;;;;;;;24.40;13.57;;;;;;;;;;6248334;28;20061;-75
2022/12/13 06:05:55;;;;;;;26.38;14.15;;;;;;;;;;6247650;28;20045;-75
2022/12/13 06:08:59;;;;;;;31.40;15.15;;;;;;;;;;6247710;28;20052;-75
2022/12/13 06:12:00;;;;;;;25.30;13.80;;;;;;;;;;6250775;28;20100;-74
2022/12/13 06:15:03;;;;;;;24.25;12.75;;;;;;;;;;6249750;28;20073;-74
2022/12/13 06:18:05;;;;;;;23.70;13.27;;;;;;;;;;6249801;28;20356;-75
2022/12/13 06:21:08;;;;;;;24.30;13.32;;;;;;;;;;6245480;28;20190;-75
2022/12/13 06:24:09;;;;;;;26.45;13.52;;;;;;;;;;6247464;28;20045;-75
2022/12/13 06:27:11;;;;;;;31.02;13.70;;;;;;;;;;6247259;28;21626;-75
2022/12/13 06:30:13;;;;;;;26.52;14.43;;;;;;;;;;6246755;28;20060;-75
2022/12/13 06:33:15;;;;;;;23.48;13.65;;;;;;;;;;6248022;28;20364;-75
2022/12/13 06:36:18;;;;;;;23.38;12.55;;;;;;;;;;6250337;28;20057;-75
2022/12/13 06:39:20;;;;;;;28.02;12.93;;;;;;;;;;6247534;28;20057;-75
2022/12/13 06:42:22;;;;;;;23.58;12.00;;;;;;;;;;6245765;28;20099;-75
2022/12/13 06:45:24;;;;;;;23.63;13.45;;;;;;;;;;6245275;28;20041;-75
2022/12/13 06:48:26;;;;;;;24.80;13.00;;;;;;;;;;6246817;28;20064;-76
2022/12/13 06:51:29;;;;;;;30.08;12.52;;;;;;;;;;6246387;28;20060;-75
2022/12/13 06:54:31;;;;;;;23.52;12.40;;;;;;;;;;6246947;28;20053;-75
2022/12/13 06:57:33;;;;;;;23.83;13.00;;;;;;;;;;6250115;28;20069;-75
2022/12/13 07:00:35;;;;;;;25.25;12.98;;;;;;;;;;6249965;28;20124;-75
2022/12/13 07:03:37;;;;;;;26.63;12.77;;;;;;;;;;6244476;28;20095;-75
2022/12/13 07:06:40;;;;;;;29.30;13.02;;;;;;;;;;6246242;28;20041;-76
2022/12/13 07:09:42;;;;;;;24.92;12.93;;;;;;;;;;6243810;28;20057;-74
2022/12/13 07:12:44;;;;;;;27.23;13.63;;;;;;;;;;6242624;28;20050;-74
2022/12/13 07:15:45;;;;;;;23.65;13.30;;;;;;;;;;6245521;28;20049;-74
2022/12/13 07:18:47;;;;;;;28.70;14.13;;;;;;;;;;6243993;28;20061;-75
2022/12/13 07:21:50;;;;;;;28.30;13.38;;;;;;;;;;6248531;28;20117;-75
2022/12/13 07:24:52;;;;;;;27.35;14.25;;;;;;;;;;6245826;28;20053;-75
2022/12/13 07:27:57;;;;;;;26.23;13.48;;;;;;;;;;6247547;28;20160;-75
2022/12/13 07:31:00;;;;;;;28.55;14.60;;;;;;;;;;6242684;28;20092;-74
2022/12/13 07:34:02;;;;;;;26.40;13.27;;;;;;;;;;6246733;28;20045;-75
2022/12/13 07:37:05;;;;;;;26.70;13.70;;;;;;;;;;6245508;28;20245;-74
2022/12/13 07:40:09;;;;;;;32.20;13.95;;;;;;;;;;6244579;28;20304;-75
2022/12/13 07:43:11;;;;;;;26.08;12.77;;;;;;;;;;6244343;28;20053;-75
2022/12/13 07:46:13;;;;;;;25.98;14.27;;;;;;;;;;6246051;28;20054;-75
2022/12/13 07:49:15;;;;;;;27.25;14.15;;;;;;;;;;6245839;28;20111;-74
2022/12/13 07:52:18;;;;;;;35.55;16.90;;;;;;;;;;6246489;28;20045;-75
2022/12/13 07:55:20;;;;;;;34.33;16.38;;;;;;;;;;6246542;28;20058;-74
2022/12/13 07:58:22;;;;;;;32.33;16.63;;;;;;;;;;6246768;28;20149;-74
2022/12/13 08:01:23;;;;;;;33.20;17.13;;;;;;;;;;6247113;28;20100;-74
2022/12/13 08:04:25;;;;;;;36.20;16.75;;;;;;;;;;6245823;28;20060;-75
2022/12/13 08:07:28;;;;;;;31.92;17.40;;;;;;;;;;6246976;28;20059;-74
2022/12/13 08:10:30;;;;;;;35.40;17.23;;;;;;;;;;6246711;28;20365;-75
2022/12/13 08:13:32;;;;;;;25.08;13.25;;;;;;;;;;6249714;28;20057;-75
2022/12/13 08:16:34;;;;;;;37.80;18.10;;;;;;;;;;6246125;28;20483;-74
2022/12/13 08:19:36;;;;;;;38.30;20.45;;;;;;;;;;6246196;28;20334;-74
2022/12/13 08:22:39;;;;;;;41.80;21.33;;;;;;;;;;6247545;28;20052;-73
2022/12/13 08:25:40;;;;;;;42.72;21.45;;;;;;;;;;6245493;28;20049;-75
2022/12/13 08:28:42;;;;;;;44.75;21.80;;;;;;;;;;6245759;28;20758;-75
2022/12/13 08:31:44;;;;;;;41.47;21.52;;;;;;;;;;6245764;28;20053;-75
2022/12/13 08:34:45;;;;;;;40.33;20.75;;;;;;;;;;6246648;28;20053;-74
2022/12/13 08:37:48;;;;;;;46.80;22.73;;;;;;;;;;6246498;28;20108;-75
2022/12/13 08:40:50;;;;;;;44.90;22.70;;;;;;;;;;6246088;28;20056;-74
2022/12/13 08:43:52;;;;;;;37.83;20.35;;;;;;;;;;6246183;28;20057;-75
2022/12/13 08:46:53;;;;;;;41.22;21.63;;;;;;;;;;6246915;28;20111;-74
2022/12/13 08:49:57;;;;;;;43.80;20.90;;;;;;;;;;6245764;28;20082;-74
2022/12/13 08:53:01;;;;;;;42.17;21.65;;;;;;;;;;6245404;28;20402;-75
2022/12/13 08:56:03;;;;;;;45.33;23.23;;;;;;;;;;6248337;28;20049;-75
2022/12/13 08:59:05;;;;;;;44.67;21.77;;;;;;;;;;6248196;28;20064;-75
2022/12/13 09:02:06;;;;;;;43.50;23.63;;;;;;;;;;6244866;28;20068;-74
2022/12/13 09:05:09;;;;;;;44.00;22.95;;;;;;;;;;6246038;28;20301;-74
2022/12/13 09:08:12;;;;;;;46.92;24.90;;;;;;;;;;6244968;28;20053;-74
2022/12/13 09:11:14;;;;;;;46.40;23.10;;;;;;;;;;6243470;28;20333;-74
2022/12/13 09:14:16;;;;;;;46.70;23.75;;;;;;;;;;6243072;28;20059;-74
2022/12/13 09:17:18;;;;;;;53.00;24.90;;;;;;;;;;6243761;28;20049;-74
2022/12/13 09:20:20;;;;;;;44.85;23.85;;;;;;;;;;6245299;28;20115;-75
2022/12/13 09:23:23;;;;;;;48.25;23.63;;;;;;;;;;6245016;28;20325;-75
2022/12/13 09:26:25;;;;;;;44.05;23.40;;;;;;;;;;6246435;28;20103;-74
2022/12/13 09:29:26;;;;;;;51.60;25.05;;;;;;;;;;6245583;28;20053;-75
2022/12/13 09:32:28;;;;;;;43.20;23.52;;;;;;;;;;6247065;28;20053;-74
2022/12/13 09:35:30;;;;;;;46.72;22.80;;;;;;;;;;6243376;28;20230;-74
2022/12/13 09:38:34;;;;;;;44.25;23.30;;;;;;;;;;6238370;28;20061;-75
2022/12/13 09:41:37;;;;;;;44.95;23.90;;;;;;;;;;6242642;28;20103;-75
2022/12/13 09:44:41;;;;;;;46.70;24.55;;;;;;;;;;6246730;28;20053;-74
2022/12/13 09:47:45;;;;;;;49.97;24.67;;;;;;;;;;6239690;28;20041;-74
2022/12/13 09:50:47;;;;;;;48.05;24.05;;;;;;;;;;6243841;28;20403;-74
2022/12/13 09:53:52;;;;;;;49.80;24.15;;;;;;;;;;6245081;28;20067;-75
2022/12/13 09:56:54;;;;;;;;;;;;;;;;;;6245252;28;20338;-75
2022/12/13 09:59:55;;;;;;;43.10;21.48;;;;;;;;;;6245687;28;19925;-75
2022/12/13 10:02:59;;;;;;;48.85;24.13;;;;;;;;;;6245065;28;20069;-74
2022/12/13 10:06:04;;;;;;;40.25;21.83;;;;;;;;;;6243767;28;20054;-75
2022/12/13 10:09:11;;;;;;;47.17;23.25;;;;;;;;;;6244925;28;20057;-74
2022/12/13 10:12:14;;;;;;;44.85;23.15;;;;;;;;;;6243920;28;20054;-75
2022/12/13 10:15:18;;;;;;;44.08;23.40;;;;;;;;;;6243271;28;20113;-74
2022/12/13 10:18:26;;;;;;;45.55;24.83;;;;;;;;;;6246577;28;20053;-74
2022/12/13 10:21:31;;;;;;;40.42;22.08;;;;;;;;;;6246084;28;20061;-74
2022/12/13 10:28:16;;;;;;;52.15;23.83;;;;;;;;;;6293435;27;20678;-75
2022/12/13 10:31:19;;;;;;;44.60;25.42;;;;;;;;;;6263224;28;20099;-75
2022/12/13 10:34:23;;;;;;;53.73;24.83;;;;;;;;;;6264326;28;20345;-74
2022/12/13 10:37:29;;;;;;;44.65;23.05;;;;;;;;;;6260872;28;20084;-73
2022/12/13 10:40:32;;;;;;;45.53;23.30;;;;;;;;;;6260848;28;20249;-73
2022/12/13 10:43:35;;;;;;;46.10;23.13;;;;;;;;;;6268319;28;20056;-73
2022/12/13 10:46:37;;;;;;;44.17;23.23;;;;;;;;;;6283760;28;20476;-74
2022/12/13 10:49:46;;;;;;;51.85;26.92;;;;;;;;;;6258538;28;20307;-74
2022/12/13 10:52:48;;;;;;;52.58;26.20;;;;;;;;;;6276239;28;20053;-75
2022/12/13 10:55:54;;;;;;;51.78;25.50;;;;;;;;;;6282570;28;20089;-72
2022/12/13 10:59:11;;;;;;;50.72;26.15;;;;;;;;;;6282226;28;20045;-73
2022/12/13 11:02:30;;;;;;;52.03;26.08;;;;;;;;;;6271631;28;20171;-74
2022/12/13 11:05:33;;;;;;;50.88;24.00;;;;;;;;;;6264004;28;20045;-73
2022/12/13 11:08:35;;;;;;;49.08;25.90;;;;;;;;;;6284243;28;20051;-73
2022/12/13 11:11:36;;;;;;;48.65;26.58;;;;;;;;;;6282978;27;20045;-72
2022/12/13 11:14:48;;;;;;;54.63;26.55;;;;;;;;;;6268501;28;20045;-72
2022/12/13 11:17:53;;;;;;;48.85;24.88;;;;;;;;;;6275284;28;20049;-72
2022/12/13 11:20:57;;;;;;;47.88;24.55;;;;;;;;;;6260908;28;20329;-72
2022/12/13 11:24:01;;;;;;;50.10;26.10;;;;;;;;;;6257827;28;20046;-73
2022/12/13 11:27:09;;;;;;;52.25;26.67;;;;;;;;;;6257568;28;20059;-73
2022/12/13 11:30:15;;;;;;;50.38;25.20;;;;;;;;;;6260562;28;20064;-74
2022/12/13 11:33:23;;;;;;;47.15;24.83;;;;;;;;;;6258964;28;20046;-73
2022/12/13 11:36:33;;;;;;;45.83;25.02;;;;;;;;;;6259463;28;20050;-73
2022/12/13 11:39:37;;;;;;;51.95;24.92;;;;;;;;;;6244212;28;20057;-72
2022/12/13 11:42:43;;;;;;;47.87;25.27;;;;;;;;;;6242747;28;20049;-72
2022/12/13 11:45:49;;;;;;;50.83;24.52;;;;;;;;;;6253226;28;20586;-74
2022/12/13 11:48:54;;;;;;;49.28;26.33;;;;;;;;;;6264897;28;20045;-74
2022/12/13 11:52:00;;;;;;;46.92;24.50;;;;;;;;;;6267787;28;20103;-74
2022/12/13 11:55:05;;;;;;;49.95;24.48;;;;;;;;;;6265921;28;20415;-73
2022/12/13 11:58:12;;;;;;;50.15;25.10;;;;;;;;;;6266368;28;20052;-73
2022/12/13 12:01:17;;;;;;;50.80;23.60;;;;;;;;;;6266360;28;20057;-73
2022/12/13 12:04:23;;;;;;;43.95;23.00;;;;;;;;;;6266810;28;20045;-73
2022/12/13 12:07:29;;;;;;;40.47;22.15;;;;;;;;;;6264383;28;20317;-72
2022/12/13 12:10:35;;;;;;;41.70;23.20;;;;;;;;;;6267328;28;20104;-73
2022/12/13 12:13:41;;;;;;;47.15;24.55;;;;;;;;;;6266104;28;20048;-73
2022/12/13 12:16:49;;;;;;;44.83;23.27;;;;;;;;;;6266963;28;20050;-73
2022/12/13 12:19:53;;;;;;;40.88;23.88;;;;;;;;;;6265799;28;20244;-73
2022/12/13 12:22:58;;;;;;;;;;;;;;;;;;6264406;28;20049;-73
2022/12/13 12:26:06;;;;;;;42.75;22.85;;;;;;;;;;6266837;28;20225;-74
2022/12/13 12:29:24;;;;;;;44.22;23.23;;;;;;;;;;6265342;28;20050;-73
2022/12/13 12:32:33;;;;;;;39.65;21.95;;;;;;;;;;6265121;28;20160;-73
2022/12/13 12:35:47;;;;;;;41.20;23.27;;;;;;;;;;6265560;28;20045;-72
2022/12/13 12:39:14;;;;;;;42.05;21.35;;;;;;;;;;6263443;28;20053;-72
2022/12/13 12:42:26;;;;;;;43.45;23.15;;;;;;;;;;6250934;28;20117;-73
2022/12/13 12:45:37;;;;;;;43.70;23.25;;;;;;;;;;6247350;28;20333;-74
2022/12/13 12:48:58;;;;;;;42.28;22.73;;;;;;;;;;6265022;28;20254;-73
2022/12/13 12:52:02;;;;;;;45.78;23.33;;;;;;;;;;6252275;28;20041;-73
2022/12/13 12:55:06;;;;;;;;;;;;;;;;;;6264940;28;20064;-72
2022/12/13 12:58:15;;;;;;;41.30;22.50;;;;;;;;;;6241829;28;20113;-74
2022/12/13 13:01:29;;;;;;;117.55;46.78;;;;;;;;;;6261883;28;20076;-73
2022/12/13 13:04:37;;;;;;;202.55;89.75;;;;;;;;;;6269408;28;20272;-74
2022/12/13 13:07:45;;;;;;;63.17;31.98;;;;;;;;;;6267359;28;20049;-73
2022/12/13 13:10:47;;;;;;;53.53;26.17;;;;;;;;;;6267214;28;20052;-73
2022/12/13 13:14:00;;;;;;;77.50;33.80;;;;;;;;;;6268754;28;20260;-73
2022/12/13 13:17:35;;;;;;;86.70;44.38;;;;;;;;;;6263941;28;20061;-73
2022/12/13 13:20:38;;;;;;;43.33;23.50;;;;;;;;;;6265946;28;20049;-73
2022/12/13 13:23:40;;;;;;;38.75;21.00;;;;;;;;;;6263910;28;20045;-73
2022/12/13 13:26:43;;;;;;;35.55;20.52;;;;;;;;;;6267306;28;20317;-73
2022/12/13 13:29:45;;;;;;;32.90;20.48;;;;;;;;;;6262910;28;20041;-73
2022/12/13 13:32:47;;;;;;;41.67;21.70;;;;;;;;;;6267694;28;20178;-73
2022/12/13 13:35:52;;;;;;;39.58;19.80;;;;;;;;;;6266076;28;20042;-73
2022/12/13 13:38:54;;;;;;;35.75;20.83;;;;;;;;;;6263912;28;20124;-73
2022/12/13 13:42:07;;;;;;;37.22;20.60;;;;;;;;;;6262831;28;20049;-73
2022/12/13 13:45:22;;;;;;;40.70;19.95;;;;;;;;;;6264058;28;20457;-73
2022/12/13 13:48:24;;;;;;;;;;;;;;;;;;6264351;28;20079;-73
2022/12/13 13:51:56;;;;;;;41.55;19.58;;;;;;;;;;6267983;28;19925;-73
2022/12/13 13:55:27;;;;;;;35.13;18.85;;;;;;;;;;6266405;28;20056;-74
2022/12/13 13:58:58;;;;;;;38.75;22.20;;;;;;;;;;6267568;28;20044;-73
2022/12/13 14:02:23;;;;;;;37.13;20.75;;;;;;;;;;6263867;28;20045;-72
2022/12/13 14:06:10;;;;;;;38.50;21.50;;;;;;;;;;6264200;28;20060;-72
2022/12/13 14:09:45;;;;;;;42.65;22.50;;;;;;;;;;6264821;28;20277;-72
2022/12/13 14:13:06;;;;;;;;;;;;;;;;;;6265585;28;20385;-73
2022/12/13 14:17:01;;;;;;;39.05;22.13;;;;;;;;;;6263334;28;20007;-73
2022/12/13 14:20:32;;;;;;;39.67;21.50;;;;;;;;;;6210956;28;20057;-72
2022/12/13 14:23:45;;;;;;;36.10;21.48;;;;;;;;;;6207312;28;20046;-72
2022/12/13 14:26:57;;;;;;;40.08;21.73;;;;;;;;;;6211808;28;20057;-72
2022/12/13 14:29:59;;;;;;;44.42;24.27;;;;;;;;;;6211765;28;20101;-72
2022/12/13 14:33:01;;;;;;;42.67;22.98;;;;;;;;;;6211601;28;20058;-72
2022/12/13 14:36:03;;;;;;;42.60;22.85;;;;;;;;;;6215468;28;20050;-72
2022/12/13 14:39:12;;;;;;;43.58;23.48;;;;;;;;;;6210855;28;20057;-72
2022/12/13 14:42:22;;;;;;;41.95;23.17;;;;;;;;;;6210750;28;20062;-72
2022/12/13 14:45:27;;;;;;;41.58;23.13;;;;;;;;;;6210337;28;20346;-73
2022/12/13 14:48:28;;;;;;;;;;;;;;;;;;6213004;28;20197;-71
2022/12/13 14:51:33;;;;;;;41.42;22.90;;;;;;;;;;6212024;28;19925;-72
2022/12/13 14:54:44;;;;;;;42.85;23.25;;;;;;;;;;6215905;28;20049;-72
2022/12/13 14:57:52;;;;;;;43.92;22.73;;;;;;;;;;6265356;28;20048;-72
2022/12/13 15:00:53;;;;;;;37.30;21.38;;;;;;;;;;6265160;28;20068;-73
2022/12/13 15:03:56;;;;;;;45.28;23.98;;;;;;;;;;6262688;28;20775;-72
2022/12/13 15:07:01;;;;;;;47.08;25.15;;;;;;;;;;6265329;28;20061;-73
2022/12/13 15:10:15;;;;;;;43.88;24.92;;;;;;;;;;6266353;28;20052;-72
2022/12/13 15:13:25;;;;;;;50.05;23.40;;;;;;;;;;6265530;28;20057;-73
2022/12/13 15:16:28;;;;;;;42.92;20.88;;;;;;;;;;6270180;28;20351;-72
2022/12/13 15:19:30;;;;;;;36.42;20.98;;;;;;;;;;6269497;28;20075;-71
2022/12/13 15:22:32;;;;;;;45.53;23.83;;;;;;;;;;6267695;28;20137;-73
2022/12/13 15:25:36;;;;;;;42.95;22.67;;;;;;;;;;6266959;28;20124;-73
2022/12/13 15:28:41;;;;;;;40.38;22.08;;;;;;;;;;6267842;28;20049;-73
2022/12/13 15:31:42;;;;;;;42.35;22.38;;;;;;;;;;6266420;28;20049;-72
2022/12/13 15:34:46;;;;;;;37.50;21.75;;;;;;;;;;6266030;28;20053;-72
2022/12/13 15:37:47;;;;;;;40.92;21.48;;;;;;;;;;6267790;28;20045;-73
2022/12/13 15:40:51;;;;;;;38.60;21.65;;;;;;;;;;6263164;28;20056;-72
2022/12/13 15:43:54;;;;;;;43.97;23.27;;;;;;;;;;6268192;28;20287;-71
2022/12/13 15:47:01;;;;;;;46.90;23.65;;;;;;;;;;6270720;28;20053;-72
2022/12/13 15:50:05;;;;;;;40.95;22.95;;;;;;;;;;6270979;28;20053;-72
2022/12/13 15:53:26;;;;;;;42.35;24.13;;;;;;;;;;6265378;28;20059;-72
2022/12/13 15:56:32;;;;;;;44.90;22.05;;;;;;;;;;6265839;28;20099;-72
2022/12/13 15:59:35;;;;;;;38.90;20.92;;;;;;;;;;6269519;28;20053;-72
2022/12/13 16:02:51;;;;;;;43.45;21.77;;;;;;;;;;6267561;28;20076;-72
2022/12/13 16:05:54;;;;;;;45.85;22.48;;;;;;;;;;6266594;28;20101;-72
2022/12/13 16:08:58;;;;;;;40.40;22.15;;;;;;;;;;6264628;28;20068;-72
2022/12/13 16:12:02;;;;;;;38.42;20.85;;;;;;;;;;6264216;28;20045;-74
2022/12/13 16:15:16;;;;;;;94.22;43.60;;;;;;;;;;6267640;28;20053;-74
2022/12/13 16:18:22;;;;;;;45.47;26.10;;;;;;;;;;6269283;28;20045;-72
2022/12/13 16:21:24;;;;;;;43.70;22.83;;;;;;;;;;6265116;28;20056;-72
2022/12/13 16:24:26;;;;;;;41.08;22.48;;;;;;;;;;6264439;28;20045;-72
2022/12/13 16:27:29;;;;;;;44.13;22.58;;;;;;;;;;6267431;28;20060;-72
2022/12/13 16:31:06;;;;;;;40.97;22.10;;;;;;;;;;6268180;28;20135;-72
2022/12/13 16:34:08;;;;;;;37.20;20.77;;;;;;;;;;6262838;28;20034;-72
2022/12/13 16:37:12;;;;;;;42.22;21.92;;;;;;;;;;6266347;28;20048;-72
2022/12/13 16:40:24;;;;;;;43.33;22.33;;;;;;;;;;6264260;28;20368;-72
2022/12/13 16:43:28;;;;;;;42.60;21.48;;;;;;;;;;6266919;28;20059;-72
2022/12/13 16:46:30;;;;;;;41.78;21.55;;;;;;;;;;6264592;28;20100;-73
2022/12/13 16:49:31;;;;;;;47.58;23.40;;;;;;;;;;6263560;28;20296;-72
2022/12/13 16:52:33;;;;;;;43.42;22.40;;;;;;;;;;6267288;28;20075;-72
2022/12/13 16:55:35;;;;;;;37.95;21.27;;;;;;;;;;6266033;28;20057;-73
2022/12/13 16:58:38;;;;;;;43.80;21.55;;;;;;;;;;6264968;28;20045;-74
2022/12/13 17:01:40;;;;;;;42.70;21.88;;;;;;;;;;6266287;28;20050;-72
2022/12/13 17:04:42;;;;;;;41.08;21.90;;;;;;;;;;6264088;28;20203;-73
2022/12/13 17:07:44;;;;;;;39.85;22.00;;;;;;;;;;6266327;28;20057;-73
2022/12/13 17:10:45;;;;;;;38.00;21.35;;;;;;;;;;6267127;28;20308;-73
2022/12/13 17:13:49;;;;;;;37.88;19.77;;;;;;;;;;6265663;28;20423;-72
2022/12/13 17:16:51;;;;;;;42.42;21.08;;;;;;;;;;6264905;28;20044;-72
2022/12/13 17:19:52;;;;;;;42.42;22.35;;;;;;;;;;6263494;28;20061;-72
2022/12/13 17:22:55;;;;;;;42.10;21.17;;;;;;;;;;6262775;28;20061;-71
2022/12/13 17:25:57;;;;;;;42.22;22.02;;;;;;;;;;6262185;28;20367;-72
2022/12/13 17:29:00;;;;;;;37.72;21.30;;;;;;;;;;6264354;28;20340;-72
2022/12/13 17:32:01;;;;;;;40.50;21.02;;;;;;;;;;6265994;28;20287;-72
2022/12/13 17:35:04;;;;;;;45.65;23.27;;;;;;;;;;6267369;28;20048;-72
2022/12/13 17:38:05;;;;;;;40.67;22.05;;;;;;;;;;6264457;28;20065;-72
2022/12/13 17:41:07;;;;;;;47.13;22.70;;;;;;;;;;6244085;28;20053;-72
2022/12/13 17:44:10;;;;;;;50.25;23.70;;;;;;;;;;6268290;28;20044;-72
2022/12/13 17:47:12;;;;;;;45.80;22.70;;;;;;;;;;6264051;28;20106;-72
2022/12/13 17:50:14;;;;;;;44.67;22.73;;;;;;;;;;6264359;28;20064;-72
2022/12/13 17:53:15;;;;;;;45.08;22.15;;;;;;;;;;6264121;28;20056;-72
2022/12/13 17:56:18;;;;;;;45.08;23.20;;;;;;;;;;6266636;28;20098;-72
2022/12/13 17:59:21;;;;;;;47.08;22.85;;;;;;;;;;6260762;28;20041;-72
2022/12/13 18:02:23;;;;;;;43.72;23.02;;;;;;;;;;6266327;28;20049;-68
2022/12/13 18:05:25;;;;;;;43.55;22.65;;;;;;;;;;6261865;28;20041;-74
2022/12/13 18:08:27;;;;;;;43.38;22.05;;;;;;;;;;6265727;28;20051;-72